createdAt,value
2022-12-15T00:04:53.389Z,72.04
2022-12-15T00:10:33.084Z,72.23
2022-12-15T00:16:12.385Z,71.30
2022-12-15T00:21:51.761Z,71.94
2022-12-15T00:27:31.022Z,71.56
2022-12-15T00:33:10.630Z,71.56
2022-12-15T00:38:44.238Z,71.64
2022-12-15T00:44:05.316Z,71.67
2022-12-15T00:49:47.336Z,71.26
2022-12-15T00:55:27.202Z,71.96
2022-12-15T01:01:06.614Z,71.47
2022-12-15T01:06:45.732Z,70.56
2022-12-15T01:12:25.135Z,71.11
2022-12-15T01:18:04.618Z,71.38
2022-12-15T01:23:26.220Z,71.10
2022-12-15T01:28:47.065Z,71.69
2022-12-15T01:34:07.796Z,71.36
2022-12-15T01:39:48.319Z,70.35
2022-12-15T01:45:24.376Z,70.67
2022-12-15T01:51:31.818Z,70.89
2022-12-15T01:57:03.129Z,71.10
2022-12-15T02:02:27.104Z,71.33
2022-12-15T02:07:48.231Z,71.07
2022-12-15T02:13:29.080Z,70.57
2022-12-15T02:19:34.396Z,70.80
2022-12-15T02:25:11.543Z,70.47
2022-12-15T02:30:45.020Z,69.93
2022-12-15T02:36:47.654Z,69.68
2022-12-15T02:42:10.767Z,70.07
2022-12-15T02:47:46.324Z,68.98
2022-12-15T02:53:10.501Z,70.01
2022-12-15T02:58:47.025Z,68.93
2022-12-15T03:04:10.330Z,69.26
2022-12-15T03:09:31.936Z,68.70
2022-12-15T03:14:52.463Z,68.40
2022-12-15T03:20:13.293Z,68.34
2022-12-15T03:25:33.959Z,68.71
2022-12-15T03:30:54.720Z,69.04
2022-12-15T03:36:15.322Z,69.06
2022-12-15T03:41:36.143Z,68.41
2022-12-15T03:47:02.775Z,68.61
2022-12-15T03:52:24.236Z,68.51
2022-12-15T03:57:45.284Z,68.95
2022-12-15T04:03:06.275Z,68.70
2022-12-15T04:08:27.046Z,69.33
2022-12-15T04:13:48.040Z,68.69
2022-12-15T04:19:27.679Z,68.88
2022-12-15T04:25:06.929Z,68.41
2022-12-15T04:30:46.246Z,68.38
2022-12-15T04:36:29.000Z,69.00
2022-12-15T04:42:08.814Z,68.28
2022-12-15T04:47:47.936Z,69.26
2022-12-15T04:53:33.555Z,68.72
2022-12-15T04:59:13.522Z,68.23
2022-12-15T05:04:52.788Z,68.32
2022-12-15T05:10:32.032Z,68.49
2022-12-15T05:16:11.792Z,68.34
2022-12-15T05:21:51.048Z,68.25
2022-12-15T05:27:30.313Z,68.25
2022-12-15T05:32:51.059Z,68.02
2022-12-15T05:38:11.726Z,68.82
2022-12-15T05:43:32.605Z,68.71
2022-12-15T05:48:53.512Z,68.86
2022-12-15T05:54:17.747Z,69.29
2022-12-15T05:59:38.496Z,68.36
2022-12-15T06:04:59.160Z,68.37
2022-12-15T06:10:19.859Z,68.55
2022-12-15T06:15:40.741Z,68.68
2022-12-15T06:21:07.215Z,70.49
2022-12-15T06:26:34.467Z,69.95
2022-12-15T06:31:55.536Z,68.55
2022-12-15T06:37:16.594Z,68.20
2022-12-15T06:42:37.260Z,68.82
2022-12-15T06:48:01.467Z,68.14
2022-12-15T06:53:24.169Z,68.78
2022-12-15T06:58:44.793Z,68.33
2022-12-15T07:04:05.786Z,68.10
2022-12-15T07:09:27.645Z,68.18
2022-12-15T07:14:53.322Z,67.66
2022-12-15T07:20:14.361Z,68.36
2022-12-15T07:25:39.339Z,67.89
2022-12-15T07:31:05.728Z,67.99
2022-12-15T07:36:27.810Z,68.92
2022-12-15T07:41:48.471Z,68.74
2022-12-15T07:47:10.240Z,68.82
2022-12-15T07:52:31.204Z,68.19
2022-12-15T07:57:52.199Z,68.44
2022-12-15T08:03:13.117Z,68.56
2022-12-15T08:08:35.037Z,69.00
2022-12-15T08:14:05.610Z,69.07
2022-12-15T08:19:28.413Z,68.30
2022-12-15T08:24:49.051Z,71.97
2022-12-15T08:30:10.251Z,69.36
2022-12-15T08:35:55.818Z,69.58
2022-12-15T08:41:14.845Z,68.92
2022-12-15T08:46:35.837Z,68.26
2022-12-15T08:51:56.561Z,68.67
2022-12-15T08:57:17.209Z,68.49
2022-12-15T09:02:38.098Z,68.78
2022-12-15T09:08:04.603Z,67.97
2022-12-15T09:13:28.305Z,69.13
2022-12-15T09:18:52.823Z,69.00
2022-12-15T09:24:20.651Z,69.51
2022-12-15T09:29:46.961Z,69.61
2022-12-15T09:35:07.863Z,69.71
2022-12-15T09:40:28.948Z,69.58
2022-12-15T09:46:12.752Z,68.58
2022-12-15T09:51:38.837Z,69.49
2022-12-15T09:57:08.025Z,69.50
2022-12-15T10:02:47.282Z,69.16
2022-12-15T10:08:11.032Z,69.71
2022-12-15T10:13:40.612Z,70.20
2022-12-15T10:19:02.271Z,69.80
2022-12-15T10:24:59.695Z,69.86
2022-12-15T10:30:05.269Z,69.19
2022-12-15T10:35:30.418Z,69.74
2022-12-15T10:41:12.958Z,70.05
2022-12-15T10:46:33.832Z,69.93
2022-12-15T10:52:00.578Z,70.35
2022-12-15T10:57:31.561Z,69.87
2022-12-15T11:02:52.834Z,69.50
2022-12-15T11:08:17.469Z,69.37
2022-12-15T11:13:39.527Z,69.86
2022-12-15T11:19:36.425Z,69.88
2022-12-15T11:25:05.632Z,69.73
2022-12-15T11:30:33.226Z,68.70
2022-12-15T11:36:32.932Z,69.06
2022-12-15T11:42:25.186Z,69.11
2022-12-15T11:48:21.444Z,69.03
2022-12-15T11:53:56.252Z,69.38
2022-12-15T11:59:42.030Z,69.81
2022-12-15T12:05:27.070Z,69.19
2022-12-15T12:11:07.485Z,68.88
2022-12-15T12:16:54.870Z,69.90
2022-12-15T12:22:25.959Z,68.60
2022-12-15T12:27:55.433Z,68.60
2022-12-15T12:33:39.761Z,68.54
2022-12-15T12:39:01.379Z,68.66
2022-12-15T12:44:37.585Z,67.65
2022-12-15T12:50:06.884Z,68.05
2022-12-15T12:55:41.394Z,67.77
2022-12-15T13:01:05.594Z,68.15
2022-12-15T13:06:35.337Z,67.83
2022-12-15T13:12:03.218Z,68.21
2022-12-15T13:17:42.029Z,68.12
2022-12-15T13:23:21.355Z,67.96
2022-12-15T13:28:45.945Z,69.03
2022-12-15T13:34:17.992Z,68.52
2022-12-15T13:39:54.963Z,68.50
2022-12-15T13:45:43.568Z,67.84
2022-12-15T13:51:18.382Z,68.04
2022-12-15T13:56:51.697Z,68.62
2022-12-15T14:02:29.965Z,68.08
2022-12-15T14:07:58.333Z,68.92
2022-12-15T14:13:24.559Z,68.72
2022-12-15T14:19:02.161Z,68.38
2022-12-15T14:24:40.837Z,68.95
2022-12-15T14:30:25.656Z,68.59
2022-12-15T14:35:50.230Z,71.39
2022-12-15T14:41:25.087Z,69.47
2022-12-15T14:46:47.605Z,69.35
2022-12-15T14:52:26.054Z,68.04
2022-12-15T14:57:47.925Z,71.87
2022-12-15T15:03:26.271Z,70.89
2022-12-15T15:08:52.702Z,69.95
2022-12-15T15:14:19.142Z,68.38
2022-12-15T15:19:53.418Z,68.39
2022-12-15T15:25:39.352Z,68.63
2022-12-15T15:31:06.916Z,69.53
2022-12-15T15:36:36.421Z,69.24
2022-12-15T15:41:57.190Z,68.49
2022-12-15T15:47:25.192Z,71.42
2022-12-15T15:52:45.952Z,68.61
2022-12-15T15:58:16.151Z,68.97
2022-12-15T16:03:37.257Z,69.00
2022-12-15T16:08:58.270Z,69.23
2022-12-15T16:14:19.106Z,67.69
2022-12-15T16:19:40.073Z,67.46
2022-12-15T16:25:01.892Z,67.32
2022-12-15T16:30:25.830Z,67.33
2022-12-15T16:35:49.944Z,67.43
2022-12-15T16:41:16.397Z,68.30
2022-12-15T16:46:37.779Z,68.31
2022-12-15T16:51:59.074Z,67.19
2022-12-15T16:57:20.343Z,67.68
2022-12-15T17:02:42.129Z,67.12
2022-12-15T17:08:06.617Z,67.19
2022-12-15T17:13:41.893Z,66.87
2022-12-15T17:19:04.438Z,67.12
2022-12-15T17:24:25.443Z,71.09
2022-12-15T17:29:46.488Z,69.33
2022-12-15T17:35:08.088Z,67.57
2022-12-15T17:40:29.599Z,67.36
2022-12-15T17:46:16.090Z,67.42
2022-12-15T17:51:37.588Z,67.87
2022-12-15T17:56:58.734Z,68.03
2022-12-15T18:02:19.760Z,67.82
2022-12-15T18:07:41.154Z,68.00
2022-12-15T18:13:02.334Z,68.61
2022-12-15T18:18:24.330Z,69.21
2022-12-15T18:23:47.553Z,69.10
2022-12-15T18:29:17.986Z,69.05
2022-12-15T18:34:38.957Z,70.01
2022-12-15T18:40:04.492Z,68.89
2022-12-15T18:45:28.416Z,69.37
2022-12-15T18:50:54.671Z,68.58
2022-12-15T18:56:18.169Z,68.94
2022-12-15T19:01:39.300Z,68.80
2022-12-15T19:07:06.604Z,68.71
2022-12-15T19:12:27.680Z,69.04
2022-12-15T19:18:06.849Z,69.03
2022-12-15T19:23:28.908Z,69.21
2022-12-15T19:28:49.956Z,70.06
2022-12-15T19:34:11.034Z,69.88
2022-12-15T19:39:35.203Z,69.31
2022-12-15T19:44:55.873Z,69.56
2022-12-15T19:50:25.197Z,69.72
2022-12-15T19:55:46.128Z,69.17
2022-12-15T20:01:10.864Z,69.18
2022-12-15T20:06:34.118Z,69.32
2022-12-15T20:11:55.129Z,68.90
2022-12-15T20:17:15.735Z,69.00
2022-12-15T20:22:36.530Z,69.07
2022-12-15T20:28:00.326Z,68.55
2022-12-15T20:33:21.183Z,69.03
2022-12-15T20:38:43.067Z,68.96
2022-12-15T20:44:07.036Z,68.79
2022-12-15T20:49:30.521Z,68.52
2022-12-15T20:54:53.210Z,68.70
2022-12-15T21:00:14.747Z,68.48
2022-12-15T21:05:35.473Z,68.93
2022-12-15T21:11:01.316Z,68.23
2022-12-15T21:16:28.144Z,68.89
2022-12-15T21:21:54.924Z,68.78
2022-12-15T21:27:19.244Z,68.83
2022-12-15T21:32:40.026Z,68.81
2022-12-15T21:38:01.173Z,69.29
2022-12-15T21:43:26.585Z,69.28
2022-12-15T21:49:06.187Z,69.59
2022-12-15T21:54:32.603Z,69.59
2022-12-15T21:59:53.179Z,69.59
2022-12-15T22:05:16.905Z,69.75
2022-12-15T22:10:39.308Z,69.88
2022-12-15T22:16:00.022Z,69.97
2022-12-15T22:21:20.752Z,69.81
2022-12-15T22:26:41.863Z,69.99
2022-12-15T22:32:05.768Z,69.62
2022-12-15T22:37:27.104Z,69.40
2022-12-15T22:42:53.633Z,69.47
2022-12-15T22:48:16.588Z,69.76
2022-12-15T22:53:37.283Z,70.42
2022-12-15T22:59:03.110Z,70.31
2022-12-15T23:04:24.921Z,70.52
2022-12-15T23:09:45.824Z,70.05
2022-12-15T23:15:25.503Z,69.63
2022-12-15T23:20:46.145Z,69.59
2022-12-15T23:26:07.026Z,69.28
2022-12-15T23:31:27.818Z,69.41
2022-12-15T23:36:48.441Z,70.01
2022-12-15T23:42:10.999Z,69.45
2022-12-15T23:47:31.977Z,69.93
2022-12-15T23:52:52.893Z,69.42
2022-12-15T23:58:15.559Z,69.28
